sensor_id;sensor_type;location;lat;lon;timestamp;temperature;humidity
62464;SHT31;48512;48.552;9.380;2023-08-07T00:02:19;12.27;85.31
62464;SHT31;48512;48.552;9.380;2023-08-07T00:04:45;12.46;84.14
62464;SHT31;48512;48.552;9.380;2023-08-07T00:07:11;12.40;84.19
62464;SHT31;48512;48.552;9.380;2023-08-07T00:09:37;12.41;84.15
62464;SHT31;48512;48.552;9.380;2023-08-07T00:12:04;12.28;84.10
62464;SHT31;48512;48.552;9.380;2023-08-07T00:14:30;12.27;84.04
62464;SHT31;48512;48.552;9.380;2023-08-07T00:16:56;12.40;83.06
62464;SHT31;48512;48.552;9.380;2023-08-07T00:19:22;12.25;84.07
62464;SHT31;48512;48.552;9.380;2023-08-07T00:21:49;12.18;83.67
62464;SHT31;48512;48.552;9.380;2023-08-07T00:24:15;12.25;83.77
62464;SHT31;48512;48.552;9.380;2023-08-07T00:26:41;12.44;83.00
62464;SHT31;48512;48.552;9.380;2023-08-07T00:29:07;12.34;83.02
62464;SHT31;48512;48.552;9.380;2023-08-07T00:31:33;12.27;82.91
62464;SHT31;48512;48.552;9.380;2023-08-07T00:33:59;12.24;82.85
62464;SHT31;48512;48.552;9.380;2023-08-07T00:36:25;12.27;82.96
62464;SHT31;48512;48.552;9.380;2023-08-07T00:38:54;12.46;82.13
62464;SHT31;48512;48.552;9.380;2023-08-07T00:41:20;12.35;82.81
62464;SHT31;48512;48.552;9.380;2023-08-07T00:43:46;12.28;82.48
62464;SHT31;48512;48.552;9.380;2023-08-07T00:46:12;12.20;82.90
62464;SHT31;48512;48.552;9.380;2023-08-07T00:48:39;12.35;82.11
62464;SHT31;48512;48.552;9.380;2023-08-07T00:51:05;12.44;82.17
62464;SHT31;48512;48.552;9.380;2023-08-07T00:53:37;12.20;82.97
62464;SHT31;48512;48.552;9.380;2023-08-07T00:56:03;12.18;83.46
62464;SHT31;48512;48.552;9.380;2023-08-07T00:58:30;12.23;82.57
62464;SHT31;48512;48.552;9.380;2023-08-07T01:00:57;12.25;82.85
62464;SHT31;48512;48.552;9.380;2023-08-07T01:03:24;12.10;83.29
62464;SHT31;48512;48.552;9.380;2023-08-07T01:05:50;12.04;83.83
62464;SHT31;48512;48.552;9.380;2023-08-07T01:08:16;12.00;84.51
62464;SHT31;48512;48.552;9.380;2023-08-07T01:16:44;12.16;83.60
62464;SHT31;48512;48.552;9.380;2023-08-07T01:19:21;12.11;84.04
62464;SHT31;48512;48.552;9.380;2023-08-07T01:21:49;12.10;83.48
62464;SHT31;48512;48.552;9.380;2023-08-07T01:24:15;12.30;83.18
62464;SHT31;48512;48.552;9.380;2023-08-07T01:26:44;12.34;82.52
62464;SHT31;48512;48.552;9.380;2023-08-07T01:29:26;12.23;83.31
62464;SHT31;48512;48.552;9.380;2023-08-07T01:31:57;12.13;84.21
62464;SHT31;48512;48.552;9.380;2023-08-07T01:34:25;12.18;83.32
62464;SHT31;48512;48.552;9.380;2023-08-07T01:36:53;12.14;83.50
62464;SHT31;48512;48.552;9.380;2023-08-07T01:39:21;12.21;83.24
62464;SHT31;48512;48.552;9.380;2023-08-07T01:41:49;12.42;82.64
62464;SHT31;48512;48.552;9.380;2023-08-07T01:44:16;12.20;83.32
62464;SHT31;48512;48.552;9.380;2023-08-07T01:46:42;12.11;83.47
62464;SHT31;48512;48.552;9.380;2023-08-07T01:49:08;12.07;83.48
62464;SHT31;48512;48.552;9.380;2023-08-07T01:51:34;12.00;84.30
62464;SHT31;48512;48.552;9.380;2023-08-07T01:54:00;12.08;83.09
62464;SHT31;48512;48.552;9.380;2023-08-07T01:56:26;12.17;83.22
62464;SHT31;48512;48.552;9.380;2023-08-07T01:58:52;12.30;82.73
62464;SHT31;48512;48.552;9.380;2023-08-07T02:01:18;11.97;83.75
62464;SHT31;48512;48.552;9.380;2023-08-07T02:03:45;11.91;84.08
62464;SHT31;48512;48.552;9.380;2023-08-07T02:06:11;12.10;83.41
62464;SHT31;48512;48.552;9.380;2023-08-07T02:08:37;12.01;83.62
62464;SHT31;48512;48.552;9.380;2023-08-07T02:11:03;11.93;83.80
62464;SHT31;48512;48.552;9.380;2023-08-07T02:13:29;11.89;84.33
62464;SHT31;48512;48.552;9.380;2023-08-07T02:15:55;11.98;83.41
62464;SHT31;48512;48.552;9.380;2023-08-07T02:18:21;11.96;83.23
62464;SHT31;48512;48.552;9.380;2023-08-07T02:20:47;11.96;83.31
62464;SHT31;48512;48.552;9.380;2023-08-07T02:23:13;12.04;83.07
62464;SHT31;48512;48.552;9.380;2023-08-07T02:25:39;11.87;83.79
62464;SHT31;48512;48.552;9.380;2023-08-07T02:28:05;11.90;83.10
62464;SHT31;48512;48.552;9.380;2023-08-07T02:30:33;11.89;83.25
62464;SHT31;48512;48.552;9.380;2023-08-07T02:32:59;11.91;83.13
62464;SHT31;48512;48.552;9.380;2023-08-07T02:35:25;11.86;83.39
62464;SHT31;48512;48.552;9.380;2023-08-07T02:37:51;11.90;83.79
62464;SHT31;48512;48.552;9.380;2023-08-07T02:40:18;11.80;83.87
62464;SHT31;48512;48.552;9.380;2023-08-07T02:42:45;11.83;83.82
62464;SHT31;48512;48.552;9.380;2023-08-07T02:45:11;11.96;83.18
62464;SHT31;48512;48.552;9.380;2023-08-07T02:47:37;12.05;82.55
62464;SHT31;48512;48.552;9.380;2023-08-07T02:50:03;11.87;83.02
62464;SHT31;48512;48.552;9.380;2023-08-07T02:52:29;11.93;82.96
62464;SHT31;48512;48.552;9.380;2023-08-07T02:54:56;11.94;82.96
62464;SHT31;48512;48.552;9.380;2023-08-07T02:57:22;11.89;82.45
62464;SHT31;48512;48.552;9.380;2023-08-07T02:59:48;11.97;82.33
62464;SHT31;48512;48.552;9.380;2023-08-07T03:02:14;11.97;82.42
62464;SHT31;48512;48.552;9.380;2023-08-07T03:04:40;12.10;81.35
62464;SHT31;48512;48.552;9.380;2023-08-07T03:07:06;12.20;81.11
62464;SHT31;48512;48.552;9.380;2023-08-07T03:09:32;11.96;81.91
62464;SHT31;48512;48.552;9.380;2023-08-07T03:11:58;11.96;81.77
62464;SHT31;48512;48.552;9.380;2023-08-07T03:14:29;12.13;80.72
62464;SHT31;48512;48.552;9.380;2023-08-07T03:16:55;12.03;80.76
62464;SHT31;48512;48.552;9.380;2023-08-07T03:19:21;12.00;80.15
62464;SHT31;48512;48.552;9.380;2023-08-07T03:21:48;12.05;80.23
62464;SHT31;48512;48.552;9.380;2023-08-07T03:24:14;12.11;80.11
62464;SHT31;48512;48.552;9.380;2023-08-07T03:26:40;12.04;80.70
62464;SHT31;48512;48.552;9.380;2023-08-07T03:29:06;12.21;80.35
62464;SHT31;48512;48.552;9.380;2023-08-07T03:31:33;12.03;80.86
62464;SHT31;48512;48.552;9.380;2023-08-07T03:33:59;12.00;80.68
62464;SHT31;48512;48.552;9.380;2023-08-07T03:36:27;11.90;81.05
62464;SHT31;48512;48.552;9.380;2023-08-07T03:38:53;11.91;81.15
62464;SHT31;48512;48.552;9.380;2023-08-07T03:41:19;12.08;80.69
62464;SHT31;48512;48.552;9.380;2023-08-07T03:43:46;12.03;80.76
62464;SHT31;48512;48.552;9.380;2023-08-07T03:46:13;12.24;79.71
62464;SHT31;48512;48.552;9.380;2023-08-07T03:48:39;12.05;80.13
62464;SHT31;48512;48.552;9.380;2023-08-07T03:51:06;12.00;80.52
62464;SHT31;48512;48.552;9.380;2023-08-07T03:53:49;12.14;80.47
62464;SHT31;48512;48.552;9.380;2023-08-07T03:56:15;12.07;80.46
62464;SHT31;48512;48.552;9.380;2023-08-07T03:58:41;11.93;81.37
62464;SHT31;48512;48.552;9.380;2023-08-07T04:01:08;11.91;80.81
62464;SHT31;48512;48.552;9.380;2023-08-07T04:03:34;12.11;81.00
62464;SHT31;48512;48.552;9.380;2023-08-07T04:06:01;12.14;80.98
62464;SHT31;48512;48.552;9.380;2023-08-07T04:08:27;11.91;80.87
62464;SHT31;48512;48.552;9.380;2023-08-07T04:11:07;11.96;80.53
62464;SHT31;48512;48.552;9.380;2023-08-07T04:13:34;11.98;80.74
62464;SHT31;48512;48.552;9.380;2023-08-07T04:16:01;11.91;80.82
62464;SHT31;48512;48.552;9.380;2023-08-07T04:18:33;11.84;81.18
62464;SHT31;48512;48.552;9.380;2023-08-07T04:21:02;11.80;81.30
62464;SHT31;48512;48.552;9.380;2023-08-07T04:23:28;11.76;81.76
62464;SHT31;48512;48.552;9.380;2023-08-07T04:25:54;11.80;81.85
62464;SHT31;48512;48.552;9.380;2023-08-07T04:28:20;11.93;80.97
62464;SHT31;48512;48.552;9.380;2023-08-07T04:30:49;11.84;81.21
62464;SHT31;48512;48.552;9.380;2023-08-07T04:33:17;11.98;80.88
62464;SHT31;48512;48.552;9.380;2023-08-07T04:35:43;12.03;80.01
62464;SHT31;48512;48.552;9.380;2023-08-07T04:38:09;11.80;80.81
62464;SHT31;48512;48.552;9.380;2023-08-07T04:40:35;11.76;81.15
62464;SHT31;48512;48.552;9.380;2023-08-07T04:43:01;11.87;80.90
62464;SHT31;48512;48.552;9.380;2023-08-07T04:45:28;11.84;81.02
62464;SHT31;48512;48.552;9.380;2023-08-07T04:47:54;12.11;80.16
62464;SHT31;48512;48.552;9.380;2023-08-07T04:50:20;11.86;81.07
62464;SHT31;48512;48.552;9.380;2023-08-07T04:52:46;11.93;80.72
62464;SHT31;48512;48.552;9.380;2023-08-07T04:55:12;12.01;83.51
62464;SHT31;48512;48.552;9.380;2023-08-07T04:57:38;12.53;84.38
62464;SHT31;48512;48.552;9.380;2023-08-07T05:00:05;12.73;78.80
62464;SHT31;48512;48.552;9.380;2023-08-07T05:02:31;12.11;79.37
62464;SHT31;48512;48.552;9.380;2023-08-07T05:04:57;12.13;79.61
62464;SHT31;48512;48.552;9.380;2023-08-07T05:07:23;11.93;80.64
62464;SHT31;48512;48.552;9.380;2023-08-07T05:09:52;12.01;80.44
62464;SHT31;48512;48.552;9.380;2023-08-07T05:12:22;11.90;80.55
62464;SHT31;48512;48.552;9.380;2023-08-07T05:14:48;11.93;80.75
62464;SHT31;48512;48.552;9.380;2023-08-07T05:17:14;12.05;80.28
62464;SHT31;48512;48.552;9.380;2023-08-07T05:19:40;12.04;80.17
62464;SHT31;48512;48.552;9.380;2023-08-07T05:22:06;12.04;80.73
62464;SHT31;48512;48.552;9.380;2023-08-07T05:24:32;12.04;80.45
62464;SHT31;48512;48.552;9.380;2023-08-07T05:27:06;12.25;79.90
62464;SHT31;48512;48.552;9.380;2023-08-07T05:29:34;12.00;79.81
62464;SHT31;48512;48.552;9.380;2023-08-07T05:32:00;11.87;81.12
62464;SHT31;48512;48.552;9.380;2023-08-07T05:34:26;12.08;80.47
62464;SHT31;48512;48.552;9.380;2023-08-07T05:36:52;12.10;80.54
62464;SHT31;48512;48.552;9.380;2023-08-07T05:39:18;12.28;79.89
62464;SHT31;48512;48.552;9.380;2023-08-07T05:41:45;12.16;80.26
62464;SHT31;48512;48.552;9.380;2023-08-07T05:44:11;12.40;80.09
62464;SHT31;48512;48.552;9.380;2023-08-07T05:46:37;12.31;79.75
62464;SHT31;48512;48.552;9.380;2023-08-07T05:49:03;12.18;80.29
62464;SHT31;48512;48.552;9.380;2023-08-07T05:51:29;12.25;79.96
62464;SHT31;48512;48.552;9.380;2023-08-07T05:53:55;12.25;80.15
62464;SHT31;48512;48.552;9.380;2023-08-07T05:56:21;12.34;79.96
62464;SHT31;48512;48.552;9.380;2023-08-07T05:58:47;12.45;79.38
62464;SHT31;48512;48.552;9.380;2023-08-07T06:01:13;12.44;79.09
62464;SHT31;48512;48.552;9.380;2023-08-07T06:03:42;12.68;78.46
62464;SHT31;48512;48.552;9.380;2023-08-07T06:06:08;12.40;79.44
62464;SHT31;48512;48.552;9.380;2023-08-07T06:08:35;12.58;78.49
62464;SHT31;48512;48.552;9.380;2023-08-07T06:11:01;12.37;79.66
62464;SHT31;48512;48.552;9.380;2023-08-07T06:13:30;12.30;79.69
62464;SHT31;48512;48.552;9.380;2023-08-07T06:15:57;12.38;80.23
62464;SHT31;48512;48.552;9.380;2023-08-07T06:18:23;12.45;80.26
62464;SHT31;48512;48.552;9.380;2023-08-07T06:20:49;12.59;79.13
62464;SHT31;48512;48.552;9.380;2023-08-07T06:23:15;12.48;80.73
62464;SHT31;48512;48.552;9.380;2023-08-07T06:25:42;12.68;79.71
62464;SHT31;48512;48.552;9.380;2023-08-07T06:28:08;12.90;78.04
62464;SHT31;48512;48.552;9.380;2023-08-07T06:30:34;12.70;78.74
62464;SHT31;48512;48.552;9.380;2023-08-07T06:33:00;12.61;79.79
62464;SHT31;48512;48.552;9.380;2023-08-07T06:35:27;12.55;78.93
62464;SHT31;48512;48.552;9.380;2023-08-07T06:37:53;12.63;79.21
62464;SHT31;48512;48.552;9.380;2023-08-07T06:40:19;12.69;78.94
62464;SHT31;48512;48.552;9.380;2023-08-07T06:42:45;12.65;79.64
62464;SHT31;48512;48.552;9.380;2023-08-07T06:45:11;12.78;79.15
62464;SHT31;48512;48.552;9.380;2023-08-07T06:47:37;12.82;78.95
62464;SHT31;48512;48.552;9.380;2023-08-07T06:50:03;12.79;78.88
62464;SHT31;48512;48.552;9.380;2023-08-07T06:52:30;12.89;78.50
62464;SHT31;48512;48.552;9.380;2023-08-07T06:54:56;12.93;78.85
62464;SHT31;48512;48.552;9.380;2023-08-07T06:57:22;12.96;78.82
62464;SHT31;48512;48.552;9.380;2023-08-07T06:59:48;13.06;79.08
62464;SHT31;48512;48.552;9.380;2023-08-07T07:02:14;13.03;79.46
62464;SHT31;48512;48.552;9.380;2023-08-07T07:04:40;13.28;77.83
62464;SHT31;48512;48.552;9.380;2023-08-07T07:07:07;13.27;77.76
62464;SHT31;48512;48.552;9.380;2023-08-07T07:09:33;13.34;78.06
62464;SHT31;48512;48.552;9.380;2023-08-07T07:11:59;13.37;78.27
62464;SHT31;48512;48.552;9.380;2023-08-07T07:14:25;13.41;78.22
62464;SHT31;48512;48.552;9.380;2023-08-07T07:16:51;13.41;76.64
62464;SHT31;48512;48.552;9.380;2023-08-07T07:19:17;13.50;77.24
62464;SHT31;48512;48.552;9.380;2023-08-07T07:21:44;13.59;77.75
62464;SHT31;48512;48.552;9.380;2023-08-07T07:24:10;13.89;76.75
62464;SHT31;48512;48.552;9.380;2023-08-07T07:26:36;13.96;77.01
62464;SHT31;48512;48.552;9.380;2023-08-07T07:29:02;14.16;75.89
62464;SHT31;48512;48.552;9.380;2023-08-07T07:31:28;14.13;76.54
62464;SHT31;48512;48.552;9.380;2023-08-07T07:33:54;14.09;76.91
62464;SHT31;48512;48.552;9.380;2023-08-07T07:36:20;14.31;75.88
62464;SHT31;48512;48.552;9.380;2023-08-07T07:38:47;14.44;76.22
62464;SHT31;48512;48.552;9.380;2023-08-07T07:41:14;14.52;75.26
62464;SHT31;48512;48.552;9.380;2023-08-07T07:43:41;14.50;76.06
62464;SHT31;48512;48.552;9.380;2023-08-07T07:46:07;14.37;74.91
62464;SHT31;48512;48.552;9.380;2023-08-07T07:48:33;14.57;73.79
62464;SHT31;48512;48.552;9.380;2023-08-07T07:51:01;14.57;74.99
62464;SHT31;48512;48.552;9.380;2023-08-07T07:53:27;14.56;75.48
62464;SHT31;48512;48.552;9.380;2023-08-07T07:55:54;14.63;74.48
62464;SHT31;48512;48.552;9.380;2023-08-07T07:58:20;14.65;73.81
62464;SHT31;48512;48.552;9.380;2023-08-07T08:00:47;14.69;74.85
62464;SHT31;48512;48.552;9.380;2023-08-07T08:03:13;14.91;75.12
62464;SHT31;48512;48.552;9.380;2023-08-07T08:05:39;15.25;72.58
62464;SHT31;48512;48.552;9.380;2023-08-07T08:08:06;15.20;73.40
62464;SHT31;48512;48.552;9.380;2023-08-07T08:10:33;15.16;72.42
62464;SHT31;48512;48.552;9.380;2023-08-07T08:13:00;15.25;72.85
62464;SHT31;48512;48.552;9.380;2023-08-07T08:15:26;15.50;72.67
62464;SHT31;48512;48.552;9.380;2023-08-07T08:17:52;15.68;72.32
62464;SHT31;48512;48.552;9.380;2023-08-07T08:20:18;15.88;70.96
62464;SHT31;48512;48.552;9.380;2023-08-07T08:22:45;15.70;69.07
62464;SHT31;48512;48.552;9.380;2023-08-07T08:25:12;15.75;68.91
62464;SHT31;48512;48.552;9.380;2023-08-07T08:27:39;15.92;68.84
62464;SHT31;48512;48.552;9.380;2023-08-07T08:30:06;16.08;68.50
62464;SHT31;48512;48.552;9.380;2023-08-07T08:32:32;16.26;67.90
62464;SHT31;48512;48.552;9.380;2023-08-07T08:34:58;16.18;69.14
62464;SHT31;48512;48.552;9.380;2023-08-07T08:37:24;16.12;67.14
62464;SHT31;48512;48.552;9.380;2023-08-07T08:39:51;16.00;66.81
62464;SHT31;48512;48.552;9.380;2023-08-07T08:42:17;15.95;66.77
62464;SHT31;48512;48.552;9.380;2023-08-07T08:44:54;16.04;68.18
62464;SHT31;48512;48.552;9.380;2023-08-07T08:47:21;16.25;66.16
62464;SHT31;48512;48.552;9.380;2023-08-07T08:49:51;16.28;64.25
62464;SHT31;48512;48.552;9.380;2023-08-07T08:52:20;16.21;64.96
62464;SHT31;48512;48.552;9.380;2023-08-07T08:54:47;16.50;64.77
62464;SHT31;48512;48.552;9.380;2023-08-07T08:57:13;16.50;62.70
62464;SHT31;48512;48.552;9.380;2023-08-07T08:59:42;16.85;63.29
62464;SHT31;48512;48.552;9.380;2023-08-07T09:02:08;17.04;61.09
62464;SHT31;48512;48.552;9.380;2023-08-07T09:04:36;17.16;62.84
62464;SHT31;48512;48.552;9.380;2023-08-07T09:07:03;17.10;62.11
62464;SHT31;48512;48.552;9.380;2023-08-07T09:09:30;17.00;60.84
62464;SHT31;48512;48.552;9.380;2023-08-07T09:11:57;16.77;61.47
62464;SHT31;48512;48.552;9.380;2023-08-07T09:14:26;17.18;59.69
62464;SHT31;48512;48.552;9.380;2023-08-07T09:16:53;17.45;57.57
62464;SHT31;48512;48.552;9.380;2023-08-07T09:19:19;17.77;56.59
62464;SHT31;48512;48.552;9.380;2023-08-07T09:21:46;17.69;56.25
62464;SHT31;48512;48.552;9.380;2023-08-07T09:24:12;17.91;56.88
62464;SHT31;48512;48.552;9.380;2023-08-07T09:26:41;18.11;57.19
62464;SHT31;48512;48.552;9.380;2023-08-07T09:29:09;18.08;57.04
62464;SHT31;48512;48.552;9.380;2023-08-07T09:31:43;17.84;56.49
62464;SHT31;48512;48.552;9.380;2023-08-07T09:34:11;18.08;55.16
62464;SHT31;48512;48.552;9.380;2023-08-07T09:36:40;18.17;55.58
62464;SHT31;48512;48.552;9.380;2023-08-07T09:39:07;18.27;55.32
62464;SHT31;48512;48.552;9.380;2023-08-07T09:41:33;18.28;56.03
62464;SHT31;48512;48.552;9.380;2023-08-07T09:44:08;18.38;55.25
62464;SHT31;48512;48.552;9.380;2023-08-07T09:46:42;18.34;56.00
62464;SHT31;48512;48.552;9.380;2023-08-07T09:49:08;18.34;55.30
62464;SHT31;48512;48.552;9.380;2023-08-07T09:51:46;18.56;55.06
62464;SHT31;48512;48.552;9.380;2023-08-07T09:54:12;18.76;54.30
62464;SHT31;48512;48.552;9.380;2023-08-07T09:56:41;18.67;55.14
62464;SHT31;48512;48.552;9.380;2023-08-07T09:59:08;19.06;54.51
62464;SHT31;48512;48.552;9.380;2023-08-07T10:01:37;19.14;53.63
62464;SHT31;48512;48.552;9.380;2023-08-07T10:04:05;18.99;53.43
62464;SHT31;48512;48.552;9.380;2023-08-07T10:06:31;19.03;54.18
62464;SHT31;48512;48.552;9.380;2023-08-07T10:08:59;18.99;54.15
62464;SHT31;48512;48.552;9.380;2023-08-07T10:11:26;19.27;54.35
62464;SHT31;48512;48.552;9.380;2023-08-07T10:13:52;19.27;53.50
62464;SHT31;48512;48.552;9.380;2023-08-07T10:16:20;19.06;52.81
62464;SHT31;48512;48.552;9.380;2023-08-07T10:18:46;19.11;52.98
62464;SHT31;48512;48.552;9.380;2023-08-07T10:21:12;19.36;53.29
62464;SHT31;48512;48.552;9.380;2023-08-07T10:23:38;19.32;53.50
62464;SHT31;48512;48.552;9.380;2023-08-07T10:26:06;19.75;52.70
62464;SHT31;48512;48.552;9.380;2023-08-07T10:28:35;19.41;51.89
62464;SHT31;48512;48.552;9.380;2023-08-07T10:31:06;19.18;52.66
62464;SHT31;48512;48.552;9.380;2023-08-07T10:33:33;19.59;51.72
62464;SHT31;48512;48.552;9.380;2023-08-07T10:36:00;19.18;52.62
62464;SHT31;48512;48.552;9.380;2023-08-07T10:38:26;19.41;52.48
62464;SHT31;48512;48.552;9.380;2023-08-07T10:43:28;19.24;51.56
62464;SHT31;48512;48.552;9.380;2023-08-07T10:46:03;19.38;52.56
62464;SHT31;48512;48.552;9.380;2023-08-07T10:48:29;19.27;52.56
62464;SHT31;48512;48.552;9.380;2023-08-07T10:51:03;19.06;53.51
62464;SHT31;48512;48.552;9.380;2023-08-07T10:53:37;19.30;53.16
62464;SHT31;48512;48.552;9.380;2023-08-07T10:56:04;19.27;53.05
62464;SHT31;48512;48.552;9.380;2023-08-07T10:58:34;19.47;52.69
62464;SHT31;48512;48.552;9.380;2023-08-07T11:01:39;19.73;52.37
62464;SHT31;48512;48.552;9.380;2023-08-07T11:04:10;19.83;52.57
62464;SHT31;48512;48.552;9.380;2023-08-07T11:06:38;19.75;50.58
62464;SHT31;48512;48.552;9.380;2023-08-07T11:09:09;20.09;51.04
62464;SHT31;48512;48.552;9.380;2023-08-07T11:12:01;20.13;51.02
62464;SHT31;48512;48.552;9.380;2023-08-07T11:14:27;20.27;50.52
62464;SHT31;48512;48.552;9.380;2023-08-07T11:16:53;20.49;50.59
62464;SHT31;48512;48.552;9.380;2023-08-07T11:19:20;20.75;50.52
62464;SHT31;48512;48.552;9.380;2023-08-07T11:21:47;20.67;50.03
62464;SHT31;48512;48.552;9.380;2023-08-07T11:24:14;20.41;49.45
62464;SHT31;48512;48.552;9.380;2023-08-07T11:26:44;20.07;50.75
62464;SHT31;48512;48.552;9.380;2023-08-07T11:29:10;19.75;48.53
62464;SHT31;48512;48.552;9.380;2023-08-07T11:31:36;19.24;52.19
62464;SHT31;48512;48.552;9.380;2023-08-07T11:34:03;19.41;54.19
62464;SHT31;48512;48.552;9.380;2023-08-07T11:36:29;19.41;52.24
62464;SHT31;48512;48.552;9.380;2023-08-07T11:38:55;19.63;52.12
62464;SHT31;48512;48.552;9.380;2023-08-07T11:41:22;20.68;50.25
62464;SHT31;48512;48.552;9.380;2023-08-07T11:43:48;21.46;49.07
62464;SHT31;48512;48.552;9.380;2023-08-07T11:46:15;20.93;49.24
62464;SHT31;48512;48.552;9.380;2023-08-07T11:48:42;20.75;49.30
62464;SHT31;48512;48.552;9.380;2023-08-07T11:51:09;20.24;50.81
62464;SHT31;48512;48.552;9.380;2023-08-07T11:53:36;19.57;51.77
62464;SHT31;48512;48.552;9.380;2023-08-07T11:56:10;19.59;52.36
62464;SHT31;48512;48.552;9.380;2023-08-07T11:58:38;19.59;52.98
62464;SHT31;48512;48.552;9.380;2023-08-07T12:01:16;19.90;52.82
62464;SHT31;48512;48.552;9.380;2023-08-07T12:04:14;19.85;51.55
62464;SHT31;48512;48.552;9.380;2023-08-07T12:06:56;19.45;52.88
62464;SHT31;48512;48.552;9.380;2023-08-07T12:09:22;19.68;52.63
62464;SHT31;48512;48.552;9.380;2023-08-07T12:11:48;19.50;53.19
62464;SHT31;48512;48.552;9.380;2023-08-07T12:14:15;19.38;53.10
62464;SHT31;48512;48.552;9.380;2023-08-07T12:16:44;19.28;53.35
62464;SHT31;48512;48.552;9.380;2023-08-07T12:19:11;19.21;53.53
62464;SHT31;48512;48.552;9.380;2023-08-07T12:21:37;19.30;52.66
62464;SHT31;48512;48.552;9.380;2023-08-07T12:24:07;18.97;53.98
62464;SHT31;48512;48.552;9.380;2023-08-07T12:26:33;18.86;54.76
62464;SHT31;48512;48.552;9.380;2023-08-07T12:28:59;18.79;54.16
62464;SHT31;48512;48.552;9.380;2023-08-07T12:31:25;18.63;54.81
62464;SHT31;48512;48.552;9.380;2023-08-07T12:33:51;18.75;54.78
62464;SHT31;48512;48.552;9.380;2023-08-07T12:36:17;18.53;54.62
62464;SHT31;48512;48.552;9.380;2023-08-07T12:38:43;18.38;54.55
62464;SHT31;48512;48.552;9.380;2023-08-07T12:41:10;18.04;55.80
62464;SHT31;48512;48.552;9.380;2023-08-07T12:43:36;18.05;56.87
62464;SHT31;48512;48.552;9.380;2023-08-07T12:46:02;17.97;57.48
62464;SHT31;48512;48.552;9.380;2023-08-07T12:48:29;18.01;58.63
62464;SHT31;48512;48.552;9.380;2023-08-07T12:50:55;17.94;59.65
62464;SHT31;48512;48.552;9.380;2023-08-07T12:53:21;17.87;60.58
62464;SHT31;48512;48.552;9.380;2023-08-07T12:55:47;17.77;61.84
62464;SHT31;48512;48.552;9.380;2023-08-07T12:58:13;17.67;63.07
62464;SHT31;48512;48.552;9.380;2023-08-07T13:00:39;17.67;63.77
62464;SHT31;48512;48.552;9.380;2023-08-07T13:03:05;17.52;64.06
62464;SHT31;48512;48.552;9.380;2023-08-07T13:05:31;17.67;63.99
62464;SHT31;48512;48.552;9.380;2023-08-07T13:07:58;17.21;66.43
62464;SHT31;48512;48.552;9.380;2023-08-07T13:10:24;17.34;66.56
62464;SHT31;48512;48.552;9.380;2023-08-07T13:12:53;17.38;66.20
62464;SHT31;48512;48.552;9.380;2023-08-07T13:15:20;17.36;66.53
62464;SHT31;48512;48.552;9.380;2023-08-07T13:17:46;17.40;66.43
62464;SHT31;48512;48.552;9.380;2023-08-07T13:20:13;17.29;65.50
62464;SHT31;48512;48.552;9.380;2023-08-07T13:22:41;17.18;66.35
62464;SHT31;48512;48.552;9.380;2023-08-07T13:25:09;17.12;66.57
62464;SHT31;48512;48.552;9.380;2023-08-07T13:27:36;17.00;66.60
62464;SHT31;48512;48.552;9.380;2023-08-07T13:30:03;17.01;67.08
62464;SHT31;48512;48.552;9.380;2023-08-07T13:32:30;16.94;68.15
62464;SHT31;48512;48.552;9.380;2023-08-07T13:34:57;16.94;67.88
62464;SHT31;48512;48.552;9.380;2023-08-07T13:37:24;17.01;69.20
62464;SHT31;48512;48.552;9.380;2023-08-07T13:39:50;16.95;68.97
62464;SHT31;48512;48.552;9.380;2023-08-07T13:42:18;17.15;68.36
62464;SHT31;48512;48.552;9.380;2023-08-07T13:44:44;17.31;66.63
62464;SHT31;48512;48.552;9.380;2023-08-07T13:47:11;17.43;66.03
62464;SHT31;48512;48.552;9.380;2023-08-07T13:49:38;17.46;64.25
62464;SHT31;48512;48.552;9.380;2023-08-07T13:52:05;17.54;64.44
62464;SHT31;48512;48.552;9.380;2023-08-07T13:54:31;17.66;64.78
62464;SHT31;48512;48.552;9.380;2023-08-07T13:56:57;17.56;65.01
62464;SHT31;48512;48.552;9.380;2023-08-07T13:59:23;17.70;64.50
62464;SHT31;48512;48.552;9.380;2023-08-07T14:01:50;17.70;65.62
62464;SHT31;48512;48.552;9.380;2023-08-07T14:04:16;17.59;60.45
62464;SHT31;48512;48.552;9.380;2023-08-07T14:06:42;17.57;61.54
62464;SHT31;48512;48.552;9.380;2023-08-07T14:09:10;17.54;61.33
62464;SHT31;48512;48.552;9.380;2023-08-07T14:11:37;17.45;61.25
62464;SHT31;48512;48.552;9.380;2023-08-07T14:14:04;17.52;61.24
62464;SHT31;48512;48.552;9.380;2023-08-07T14:16:30;17.60;60.72
62464;SHT31;48512;48.552;9.380;2023-08-07T14:18:57;18.14;59.51
62464;SHT31;48512;48.552;9.380;2023-08-07T14:21:23;19.44;57.61
62464;SHT31;48512;48.552;9.380;2023-08-07T14:23:50;19.92;55.09
62464;SHT31;48512;48.552;9.380;2023-08-07T14:26:16;19.86;56.24
62464;SHT31;48512;48.552;9.380;2023-08-07T14:28:44;20.49;54.02
62464;SHT31;48512;48.552;9.380;2023-08-07T14:31:10;20.82;54.33
62464;SHT31;48512;48.552;9.380;2023-08-07T14:33:37;20.71;52.45
62464;SHT31;48512;48.552;9.380;2023-08-07T14:36:03;21.05;51.77
62464;SHT31;48512;48.552;9.380;2023-08-07T14:38:30;20.38;52.82
62464;SHT31;48512;48.552;9.380;2023-08-07T14:40:56;20.13;52.71
62464;SHT31;48512;48.552;9.380;2023-08-07T14:43:22;19.72;53.52
62464;SHT31;48512;48.552;9.380;2023-08-07T14:45:49;19.47;54.68
62464;SHT31;48512;48.552;9.380;2023-08-07T14:48:15;19.41;55.60
62464;SHT31;48512;48.552;9.380;2023-08-07T14:50:42;19.39;54.27
62464;SHT31;48512;48.552;9.380;2023-08-07T14:53:08;19.50;54.72
62464;SHT31;48512;48.552;9.380;2023-08-07T14:55:34;19.73;61.29
62464;SHT31;48512;48.552;9.380;2023-08-07T14:58:00;19.72;54.61
62464;SHT31;48512;48.552;9.380;2023-08-07T15:00:26;19.79;54.83
62464;SHT31;48512;48.552;9.380;2023-08-07T15:02:53;19.75;54.02
62464;SHT31;48512;48.552;9.380;2023-08-07T15:05:19;19.54;57.24
62464;SHT31;48512;48.552;9.380;2023-08-07T15:07:45;19.66;59.44
62464;SHT31;48512;48.552;9.380;2023-08-07T15:10:11;19.79;56.27
62464;SHT31;48512;48.552;9.380;2023-08-07T15:12:37;19.94;59.76
62464;SHT31;48512;48.552;9.380;2023-08-07T15:15:03;20.03;59.97
62464;SHT31;48512;48.552;9.380;2023-08-07T15:17:32;20.03;58.35
62464;SHT31;48512;48.552;9.380;2023-08-07T15:19:58;19.97;52.94
62464;SHT31;48512;48.552;9.380;2023-08-07T15:22:24;19.75;53.13
62464;SHT31;48512;48.552;9.380;2023-08-07T15:24:50;19.27;53.76
62464;SHT31;48512;48.552;9.380;2023-08-07T15:27:16;19.11;54.18
62464;SHT31;48512;48.552;9.380;2023-08-07T15:29:44;18.99;54.73
62464;SHT31;48512;48.552;9.380;2023-08-07T15:32:12;18.94;55.35
62464;SHT31;48512;48.552;9.380;2023-08-07T15:34:45;18.99;55.65
62464;SHT31;48512;48.552;9.380;2023-08-07T15:37:11;19.00;54.51
62464;SHT31;48512;48.552;9.380;2023-08-07T15:39:37;18.92;54.70